Details From CYZH - SLAVE LAKE
To PAGY - SKAGWAY
Flight Number -
Tags generated
Created
Modified
Stats Distance 739 nm / 1,368 km
Max Altitude 34,000 ft / 10,363 m
Waypoints 5
Social Downloads 1
Likes 0
Share VATSIM

Download

Looking for another format? Having issues loading an existing format? Contact us
Advertisement - Login to hide

Notes

Basic altitude profile: - Ascent Rate: 2500ft/min - Ascent Speed: 250kts - Cruise Altitude: 35000ft - Cruise Speed: 420kts - Descent Rate: 1500ft/min - Descent Speed: 250kts Options: - Use NATs: yes - Use PACOTS: yes - Use low airways: yes - Use high airways: yes

Route

CYZH YPE NCA12 KITAR PAGY

ID Type Via Altitude Latitude Longitude Leg Dist Tot Dist Heading (true) Name
O CYZH APT - 0 ft / 0 m 55.29330˚ -114.77831˚ - 0 nm - SLAVE LAKE
YPE VOR - 34,000 ft / 10,363 m 56.20692˚ -117.51181˚ 107 nm 107 nm 302° / 300° PEACE RIVER VOR-DME
IGSEL FIX NCA12 (AWY-HI) 34,000 ft / 10,363 m 58.22778˚ -125.00000˚ 271 nm 379 nm 300° / 293° -
KITAR FIX NCA12 (AWY-HI) 28,000 ft / 8,534 m 60.00000˚ -135.00000˚ 325 nm 705 nm 293° / 285° -
O PAGY APT - 0 ft / 0 m 59.46006˚ -135.31566˚ 33 nm 738 nm 197° / 196° SKAGWAY

Altitude Profile

Advertisement - Login to hide

Weather


0- 5 10 15 20 25 30 35+ Temperature / ° C

Clouds and Precipitation
Forecast for 2018-05-24 00:00 UTC. Updated 6 hours ago

Ground ~20,000 ft ~40,000 ft Winds

CYZH

Details ICAO CYZH (YZH)
Name SLAVE LAKE
Region Canada
Timezone America/Edmonton (UTC-6.0)
Stats Elevation 1,912 ft / 583 m (AMSL)
Location 55.293303° -114.778310°
Runways 1
Magnetic Variation 15.210° E

METAR

CYZH 240500Z AUTO 12003KT 9SM SCT140 20/08 A2972 RMK SLP062 DENSITY ALT 3100FT

Decode

TAF

TAF CYZH 240038Z 2401/2413 12010G20KT P6SM SKC FM240500 11008KT P6SM FEW090 RMK FCST BASED ON AUTO OBS. NXT FCST BY 240700Z

Decode

Departure Runways

ID Width Length Bearing (true) Bearing (mag) Surface Threshold Offset Overrun Length
10 100 ft / 30 m 5,535 ft / 1,687 m 114.74° 99.53° Asphalt 0 ft / 0 m 0 ft / 0 m
28 100 ft / 30 m 5,535 ft / 1,687 m 294.76° 279.55° Asphalt 557 ft / 170 m 0 ft / 0 m

PAGY

Details ICAO PAGY (SGY)
Name SKAGWAY
Region USA (Alaska)
Timezone America/Juneau (UTC-8.0)
Stats Elevation 44 ft / 13 m (AMSL)
Location 59.460062° -135.315661°
Runways 1
Magnetic Variation 19.212° E

METAR

PAGY 240453Z AUTO 20013G19KT 10SM BKN080 OVC090 14/02 A2973 RMK AO2 SLP067 T01390022 TSNO

Decode

TAF

PAGY 232335Z 2400/2424 21008KT P6SM SCT050 BKN100 FM240600 21014KT P6SM VCSH SCT060 BKN080 AMD LTD TO CLD VIS AND WIND

Decode

Destination Runways

ID Width Length Bearing (true) Bearing (mag) Surface Threshold Offset Overrun Length
02 75 ft / 23 m 3,542 ft / 1,080 m 43.94° 24.73° Asphalt 0 ft / 0 m 299 ft / 91 m
20 75 ft / 23 m 3,542 ft / 1,080 m 223.95° 204.74° Asphalt 0 ft / 0 m 299 ft / 91 m